Time;durP1;ratioP1;P1;durP2;ratioP2;P2;SDS_P1;SDS_P2;PMS_P1;PMS_P2;Temp;Humidity;BMP_temperature;BMP_pressure;BME280_temperature;BME280_humidity;BME280_pressure;Samples;Min_cycle;Max_cycle;Signal;HPM_P1;HPM_P2
2023/03/10 00:01:47;;;;;;;12.75;10.38;;;1.70;99.90;;;;;;4993322;28;20045;-70
2023/03/10 00:04:12;;;;;;;14.07;10.55;;;1.80;99.90;;;;;;4993163;28;20041;-70
2023/03/10 00:06:38;;;;;;;13.25;10.23;;;1.70;99.90;;;;;;4993161;28;20047;-70
2023/03/10 00:09:04;;;;;;;14.52;11.25;;;1.70;99.90;;;;;;4993096;28;20042;-70
2023/03/10 00:11:30;;;;;;;13.95;11.02;;;1.80;99.90;;;;;;4993138;28;20053;-70
2023/03/10 00:13:55;;;;;;;15.13;11.70;;;1.80;99.90;;;;;;4993265;28;20088;-70
2023/03/10 00:16:24;;;;;;;15.13;11.80;;;1.70;99.90;;;;;;4992889;28;20495;-70
2023/03/10 00:18:51;;;;;;;15.30;12.05;;;1.80;99.90;;;;;;4993695;28;20099;-70
2023/03/10 00:21:23;;;;;;;14.82;11.45;;;1.70;99.90;;;;;;4977052;28;20050;-70
2023/03/10 00:23:49;;;;;;;13.77;10.65;;;1.70;99.90;;;;;;4993111;28;20092;-70
2023/03/10 00:26:17;;;;;;;15.43;11.57;;;1.60;99.90;;;;;;4992917;28;20117;-70
2023/03/10 00:28:43;;;;;;;13.23;10.75;;;1.70;99.90;;;;;;4992889;28;20043;-70
2023/03/10 00:31:15;;;;;;;14.02;11.65;;;1.70;99.90;;;;;;4992837;28;20053;-70
2023/03/10 00:33:41;;;;;;;15.40;11.43;;;1.70;99.90;;;;;;4992541;28;20042;-70
2023/03/10 00:36:06;;;;;;;15.25;11.95;;;1.70;99.90;;;;;;4992678;28;20043;-70
2023/03/10 00:38:33;;;;;;;14.93;11.57;;;1.80;99.90;;;;;;4992734;28;20045;-70
2023/03/10 00:41:05;;;;;;;14.13;11.23;;;1.60;99.90;;;;;;4993281;28;20038;-70
2023/03/10 00:43:30;;;;;;;13.65;10.73;;;1.60;99.90;;;;;;4992865;28;20553;-70
2023/03/10 00:45:56;;;;;;;15.32;12.50;;;1.60;99.90;;;;;;4992626;28;20042;-70
2023/03/10 00:48:22;;;;;;;14.48;11.43;;;1.60;99.90;;;;;;4992853;28;20046;-70
2023/03/10 00:50:48;;;;;;;13.68;11.35;;;1.70;99.90;;;;;;4992623;28;20529;-70
2023/03/10 00:53:14;;;;;;;12.63;10.60;;;1.60;99.90;;;;;;4992510;28;20057;-70
2023/03/10 00:55:40;;;;;;;14.77;11.70;;;1.60;99.90;;;;;;4976088;28;20046;-70
2023/03/10 00:58:06;;;;;;;15.73;12.02;;;1.60;99.90;;;;;;4992525;28;20038;-70
2023/03/10 01:00:31;;;;;;;15.63;12.65;;;1.70;99.90;;;;;;4992744;28;20042;-70
2023/03/10 01:02:58;;;;;;;17.90;13.45;;;1.70;99.90;;;;;;4992625;28;20042;-70
2023/03/10 01:05:23;;;;;;;15.25;12.52;;;1.60;99.90;;;;;;4992431;28;20529;-70
2023/03/10 01:07:49;;;;;;;15.02;11.90;;;1.70;99.90;;;;;;4992387;28;20043;-70
2023/03/10 01:10:15;;;;;;;16.83;12.10;;;1.70;99.90;;;;;;4992682;28;20133;-70
2023/03/10 01:12:40;;;;;;;15.48;12.13;;;1.80;99.90;;;;;;4992292;28;20495;-70
2023/03/10 01:15:07;;;;;;;15.88;11.65;;;1.70;99.90;;;;;;4992436;28;20049;-70
2023/03/10 01:17:33;;;;;;;15.45;11.98;;;1.70;99.90;;;;;;4976151;28;20406;-70
2023/03/10 01:19:58;;;;;;;15.73;12.40;;;1.70;99.90;;;;;;4976163;28;20042;-70
2023/03/10 01:22:24;;;;;;;14.07;11.05;;;1.80;99.90;;;;;;4976006;28;20128;-70
2023/03/10 01:24:50;;;;;;;13.35;10.35;;;1.70;99.90;;;;;;4992279;28;20134;-70
2023/03/10 01:27:15;;;;;;;15.60;12.02;;;1.60;99.90;;;;;;4992254;28;20038;-70
2023/03/10 01:29:41;;;;;;;15.77;11.63;;;1.70;99.90;;;;;;4992231;28;20046;-70
2023/03/10 01:32:06;;;;;;;13.45;10.98;;;1.70;99.90;;;;;;4992174;28;20042;-70
2023/03/10 01:34:32;;;;;;;14.38;11.20;;;1.80;99.90;;;;;;4991937;28;20038;-70
2023/03/10 01:36:58;;;;;;;13.13;10.55;;;1.60;99.90;;;;;;4992447;28;20057;-70
2023/03/10 01:39:24;;;;;;;15.82;11.73;;;1.60;99.90;;;;;;4992380;28;20627;-70
2023/03/10 01:41:49;;;;;;;14.77;11.82;;;1.70;99.90;;;;;;4975917;28;20038;-70
2023/03/10 01:44:18;;;;;;;13.43;10.52;;;1.70;99.90;;;;;;4992029;28;20042;-70
2023/03/10 01:46:54;;;;;;;13.90;11.27;;;1.70;99.90;;;;;;4992097;28;20046;-70
2023/03/10 01:49:43;;;;;;;13.70;10.80;;;1.70;99.90;;;;;;4992107;28;20054;-70
2023/03/10 01:52:19;;;;;;;14.23;11.00;;;1.70;99.90;;;;;;4992380;28;20559;-70
2023/03/10 01:54:52;;;;;;;13.98;11.10;;;1.60;99.90;;;;;;4991942;28;20054;-70
2023/03/10 01:57:22;;;;;;;14.73;11.43;;;1.70;99.90;;;;;;4992010;28;20091;-70
2023/03/10 01:59:49;;;;;;;14.35;11.63;;;1.70;99.90;;;;;;4992009;28;20126;-70
2023/03/10 02:02:15;;;;;;;13.70;11.07;;;1.60;99.90;;;;;;4991954;28;20569;-70
2023/03/10 02:04:47;;;;;;;15.82;12.40;;;1.60;99.90;;;;;;4991840;28;20046;-70
2023/03/10 02:07:14;;;;;;;15.63;12.07;;;1.70;99.90;;;;;;4976203;28;20407;-70
2023/03/10 02:09:45;;;;;;;16.40;12.60;;;1.60;99.90;;;;;;4995679;28;20050;-70
2023/03/10 02:12:13;;;;;;;15.57;12.40;;;1.60;99.90;;;;;;4995669;28;20407;-70
2023/03/10 02:14:40;;;;;;;16.85;12.35;;;1.70;99.90;;;;;;4995216;28;20518;-70
2023/03/10 02:17:10;;;;;;;15.98;12.80;;;1.60;99.90;;;;;;4979157;28;20050;-70
2023/03/10 02:20:13;;;;;;;17.70;13.18;;;1.70;99.90;;;;;;4995238;28;20411;-70
2023/03/10 02:22:39;;;;;;;18.87;13.53;;;1.60;99.90;;;;;;4978904;28;20042;-70
2023/03/10 02:25:22;;;;;;;16.05;13.00;;;1.50;99.90;;;;;;4995114;28;20042;-70
2023/03/10 02:27:48;;;;;;;15.98;12.60;;;1.70;99.90;;;;;;4995079;28;20635;-70
2023/03/10 02:30:29;;;;;;;16.23;12.93;;;1.60;99.90;;;;;;4995034;28;20072;-70
2023/03/10 02:33:00;;;;;;;17.17;13.23;;;1.60;99.90;;;;;;4994832;28;20042;-70
2023/03/10 02:35:26;;;;;;;18.13;13.13;;;1.70;99.90;;;;;;4994933;28;20077;-70
2023/03/10 02:37:51;;;;;;;18.58;14.23;;;1.70;99.90;;;;;;4978964;28;20088;-70
2023/03/10 02:40:32;;;;;;;18.55;14.05;;;1.60;99.90;;;;;;4978728;28;20084;-70
2023/03/10 02:42:59;;;;;;;19.95;14.23;;;1.70;99.90;;;;;;4995056;28;20043;-70
2023/03/10 02:45:32;;;;;;;19.90;15.07;;;1.60;99.90;;;;;;4995053;28;20046;-70
2023/03/10 02:47:57;;;;;;;21.37;16.00;;;1.60;99.90;;;;;;4978646;28;20050;-70
2023/03/10 02:50:27;;;;;;;20.90;16.33;;;1.60;99.90;;;;;;4994681;28;20046;-69
2023/03/10 02:53:03;;;;;;;21.20;16.98;;;1.60;99.90;;;;;;4994573;28;20042;-70
2023/03/10 02:55:28;;;;;;;22.17;17.17;;;1.60;99.90;;;;;;4978347;28;20043;-70
2023/03/10 02:57:55;;;;;;;23.80;17.90;;;1.70;99.90;;;;;;4994784;28;20172;-70
2023/03/10 03:00:20;;;;;;;22.35;17.67;;;1.70;99.90;;;;;;4994813;28;20093;-70
2023/03/10 03:02:46;;;;;;;22.55;18.20;;;1.70;99.90;;;;;;4994409;28;20592;-70
2023/03/10 03:05:11;;;;;;;25.02;19.60;;;1.70;99.90;;;;;;4994392;28;20043;-70
2023/03/10 03:07:37;;;;;;;23.38;18.38;;;1.60;99.90;;;;;;4994371;28;20069;-70
2023/03/10 03:10:03;;;;;;;23.35;18.27;;;1.60;99.90;;;;;;4978106;28;20048;-70
2023/03/10 03:12:29;;;;;;;24.85;19.00;;;1.60;99.90;;;;;;4994197;28;20042;-70
2023/03/10 03:14:54;;;;;;;22.10;17.70;;;1.60;99.90;;;;;;4977971;28;20035;-70
2023/03/10 03:17:20;;;;;;;23.80;18.23;;;1.70;99.90;;;;;;4994480;28;20086;-70
2023/03/10 03:19:45;;;;;;;23.77;18.25;;;1.60;99.90;;;;;;4994056;28;20459;-70
2023/03/10 03:22:11;;;;;;;23.30;17.25;;;1.70;99.90;;;;;;4994866;28;20041;-70
2023/03/10 03:24:36;;;;;;;21.42;16.52;;;1.80;99.90;;;;;;4993936;28;20039;-70
2023/03/10 03:27:04;;;;;;;21.73;16.50;;;1.70;99.90;;;;;;4994273;28;20038;-70
2023/03/10 03:29:29;;;;;;;20.90;15.95;;;1.60;99.90;;;;;;4993959;28;20464;-70
2023/03/10 03:31:55;;;;;;;20.95;15.13;;;1.60;99.90;;;;;;4993811;28;20568;-70
2023/03/10 03:34:20;;;;;;;17.50;13.63;;;1.70;99.90;;;;;;4993683;28;20049;-70
2023/03/10 03:36:46;;;;;;;17.33;13.45;;;1.60;99.90;;;;;;4977567;28;20050;-70
2023/03/10 03:39:16;;;;;;;17.55;13.90;;;1.70;99.90;;;;;;4993764;28;20042;-70
2023/03/10 03:41:42;;;;;;;16.30;13.27;;;1.60;99.90;;;;;;4993725;28;20081;-70
2023/03/10 03:44:08;;;;;;;15.93;12.85;;;1.70;99.90;;;;;;4993835;28;20045;-70
2023/03/10 03:46:33;;;;;;;17.42;12.85;;;1.60;99.90;;;;;;4993929;28;20469;-70
2023/03/10 03:48:59;;;;;;;15.65;11.80;;;1.60;99.90;;;;;;4977382;28;20495;-69
2023/03/10 03:51:24;;;;;;;17.33;12.00;;;1.70;99.90;;;;;;4993510;28;20053;-69
2023/03/10 03:53:50;;;;;;;15.50;11.52;;;1.60;99.90;;;;;;4993350;28;20042;-70
2023/03/10 03:56:16;;;;;;;15.15;10.75;;;1.50;99.90;;;;;;4993346;28;20042;-70
2023/03/10 03:58:41;;;;;;;15.90;11.30;;;1.50;99.90;;;;;;4993630;28;20096;-70
2023/03/10 04:01:07;;;;;;;15.25;11.20;;;1.60;99.90;;;;;;4993302;28;20045;-70
2023/03/10 04:03:32;;;;;;;14.80;11.18;;;1.60;99.90;;;;;;4993262;28;20034;-70
2023/03/10 04:05:58;;;;;;;14.70;11.00;;;1.70;99.90;;;;;;4993500;28;20045;-70
2023/03/10 04:08:23;;;;;;;16.60;11.63;;;1.60;99.90;;;;;;4977061;28;20050;-70
2023/03/10 04:10:51;;;;;;;13.40;10.40;;;1.50;99.90;;;;;;4993417;28;20050;-70
2023/03/10 04:13:17;;;;;;;16.55;11.18;;;1.60;99.90;;;;;;4993065;28;20042;-70
2023/03/10 04:15:43;;;;;;;16.30;10.93;;;1.50;99.90;;;;;;4993010;28;20096;-70
2023/03/10 04:18:09;;;;;;;14.73;11.00;;;1.50;99.90;;;;;;4993073;28;20038;-70
2023/03/10 04:20:35;;;;;;;13.63;10.77;;;1.60;99.90;;;;;;4993030;28;20513;-70
2023/03/10 04:23:02;;;;;;;14.15;10.90;;;1.60;99.90;;;;;;4993130;28;20093;-70
2023/03/10 04:25:27;;;;;;;13.75;9.77;;;1.50;99.90;;;;;;4993000;28;20042;-70
2023/03/10 04:27:53;;;;;;;14.48;11.00;;;1.50;99.90;;;;;;4993143;28;20389;-70
2023/03/10 04:30:19;;;;;;;14.52;10.68;;;1.50;99.90;;;;;;4992702;28;20038;-70
2023/03/10 04:32:45;;;;;;;14.27;10.65;;;1.60;99.90;;;;;;4992655;28;20077;-70
2023/03/10 04:35:12;;;;;;;13.57;10.55;;;1.60;99.90;;;;;;4992743;28;20093;-70
2023/03/10 04:37:38;;;;;;;13.43;10.48;;;1.60;99.90;;;;;;4993017;28;20535;-70
2023/03/10 04:40:08;;;;;;;13.27;10.23;;;1.50;99.90;;;;;;4992757;28;20034;-70
2023/03/10 04:42:34;;;;;;;12.43;9.88;;;1.50;99.90;;;;;;4992667;28;20031;-70
2023/03/10 04:45:00;;;;;;;14.98;10.73;;;1.60;99.90;;;;;;4992695;28;20043;-70
2023/03/10 04:47:25;;;;;;;14.43;10.85;;;1.50;99.90;;;;;;4992661;28;20042;-70
2023/03/10 04:49:51;;;;;;;16.40;11.05;;;1.50;99.90;;;;;;4992835;28;20046;-70
2023/03/10 04:52:16;;;;;;;14.27;10.50;;;1.50;99.90;;;;;;4976401;28;20121;-70
2023/03/10 04:54:42;;;;;;;13.48;10.50;;;1.60;99.90;;;;;;4992424;28;20162;-70
2023/03/10 04:57:08;;;;;;;14.10;10.75;;;1.60;99.90;;;;;;4992501;28;20086;-70
2023/03/10 04:59:33;;;;;;;14.88;10.75;;;1.60;99.90;;;;;;4992743;28;20034;-70
2023/03/10 05:01:59;;;;;;;13.25;10.77;;;1.40;99.90;;;;;;4992492;28;20507;-70
2023/03/10 05:04:25;;;;;;;15.27;11.13;;;1.50;99.90;;;;;;4992438;28;20093;-70
2023/03/10 05:06:51;;;;;;;13.90;10.70;;;1.40;99.90;;;;;;4992720;28;20064;-70
2023/03/10 05:09:17;;;;;;;15.02;11.07;;;1.40;99.90;;;;;;4992427;28;20042;-70
2023/03/10 05:11:43;;;;;;;15.32;11.68;;;1.50;99.90;;;;;;4992651;28;20050;-70
2023/03/10 05:14:11;;;;;;;14.73;11.05;;;1.50;99.90;;;;;;4976396;28;20096;-70
2023/03/10 05:16:36;;;;;;;17.02;11.73;;;1.50;99.90;;;;;;4992363;28;20057;-70
2023/03/10 05:19:02;;;;;;;14.57;11.40;;;1.50;99.90;;;;;;4992333;28;20034;-70
2023/03/10 05:21:28;;;;;;;15.98;12.02;;;1.50;99.90;;;;;;4992635;28;20126;-70
2023/03/10 05:23:53;;;;;;;14.88;11.48;;;1.40;99.90;;;;;;4976154;28;20387;-70
2023/03/10 05:26:19;;;;;;;14.88;11.80;;;1.50;99.90;;;;;;4992533;28;20097;-70
2023/03/10 05:28:45;;;;;;;15.70;11.75;;;1.50;99.90;;;;;;4992241;28;20530;-70
2023/03/10 05:31:13;;;;;;;17.13;12.75;;;1.40;99.90;;;;;;4992227;28;20054;-70
2023/03/10 05:33:39;;;;;;;16.02;12.43;;;1.40;99.90;;;;;;4992032;28;20105;-70
2023/03/10 05:36:07;;;;;;;18.00;12.73;;;1.40;99.90;;;;;;4992117;28;20038;-70
2023/03/10 05:38:34;;;;;;;18.90;13.55;;;1.50;99.90;;;;;;4992051;28;20449;-70
2023/03/10 05:41:00;;;;;;;16.45;12.95;;;1.50;99.90;;;;;;4992158;28;20076;-69
2023/03/10 05:43:26;;;;;;;18.70;13.88;;;1.40;99.90;;;;;;4978227;28;20074;-69
2023/03/10 05:45:58;;;;;;;19.67;14.40;;;1.40;99.90;;;;;;4995883;28;20042;-69
2023/03/10 05:48:25;;;;;;;20.92;15.32;;;1.50;99.90;;;;;;4995824;28;20046;-69
2023/03/10 05:50:59;;;;;;;19.65;15.40;;;1.40;99.90;;;;;;4996099;28;20046;-69
2023/03/10 05:53:24;;;;;;;18.63;14.35;;;1.50;99.90;;;;;;4995710;28;20038;-69
2023/03/10 05:55:51;;;;;;;21.05;15.63;;;1.50;99.90;;;;;;4995561;28;20045;-69
2023/03/10 05:58:16;;;;;;;23.25;16.67;;;1.30;99.90;;;;;;4995962;28;20069;-69
2023/03/10 06:00:42;;;;;;;23.38;17.40;;;1.50;99.90;;;;;;4995579;28;20487;-69
2023/03/10 06:03:07;;;;;;;25.25;18.27;;;1.50;99.90;;;;;;4995721;28;20125;-69
2023/03/10 06:05:33;;;;;;;25.13;17.27;;;1.50;99.90;;;;;;4996729;28;20100;-69
2023/03/10 06:07:58;;;;;;;24.38;18.17;;;1.40;99.90;;;;;;4995418;28;20034;-69
2023/03/10 06:10:24;;;;;;;25.65;19.02;;;1.40;99.90;;;;;;4995423;28;20042;-69
2023/03/10 06:12:51;;;;;;;26.40;19.48;;;1.40;99.90;;;;;;4995621;28;20093;-69
2023/03/10 06:15:17;;;;;;;28.35;19.65;;;1.50;99.90;;;;;;4995293;28;20046;-70
2023/03/10 06:17:42;;;;;;;30.48;20.73;;;1.40;99.90;;;;;;4995308;28;20081;-70
2023/03/10 06:20:08;;;;;;;29.77;21.95;;;1.50;99.90;;;;;;4995268;28;20042;-70
2023/03/10 06:22:34;;;;;;;30.75;21.92;;;1.60;99.90;;;;;;4995452;28;20043;-70
2023/03/10 06:25:00;;;;;;;33.22;21.30;;;1.50;99.90;;;;;;4995403;28;20524;-69
2023/03/10 06:27:25;;;;;;;31.50;21.33;;;1.60;99.90;;;;;;4995389;28;20053;-71
2023/03/10 06:29:51;;;;;;;31.02;21.05;;;1.40;99.90;;;;;;4995100;28;20465;-69
2023/03/10 06:32:16;;;;;;;32.17;21.88;;;1.60;99.90;;;;;;4995122;28;20053;-69
2023/03/10 06:34:42;;;;;;;33.65;22.63;;;1.50;99.90;;;;;;4978674;28;20038;-69
2023/03/10 06:37:08;;;;;;;31.70;22.08;;;1.50;99.90;;;;;;4994996;28;20037;-69
2023/03/10 06:39:37;;;;;;;34.53;23.25;;;1.50;99.90;;;;;;4994909;28;20125;-69
2023/03/10 06:42:03;;;;;;;34.97;23.55;;;1.60;99.90;;;;;;4995116;28;20193;-69
2023/03/10 06:44:28;;;;;;;31.67;22.55;;;1.50;99.90;;;;;;4994764;28;20062;-69
2023/03/10 06:46:54;;;;;;;36.90;24.60;;;1.60;99.90;;;;;;4994744;28;20046;-69
2023/03/10 06:49:19;;;;;;;34.25;23.17;;;1.40;99.90;;;;;;4994941;28;20038;-69
2023/03/10 06:51:45;;;;;;;37.15;23.90;;;1.60;99.90;;;;;;4994930;28;20046;-69
2023/03/10 06:54:11;;;;;;;37.17;24.02;;;1.60;99.90;;;;;;4977910;28;20589;-69
2023/03/10 06:56:36;;;;;;;32.15;22.70;;;1.50;99.90;;;;;;4994542;28;20097;-69
2023/03/10 06:59:02;;;;;;;34.85;23.65;;;1.60;99.90;;;;;;4994494;28;20034;-69
2023/03/10 07:01:32;;;;;;;36.35;24.25;;;1.50;99.90;;;;;;4994495;28;20459;-69
2023/03/10 07:03:59;;;;;;;34.92;24.13;;;1.60;99.90;;;;;;4994340;28;20388;-69
2023/03/10 07:06:25;;;;;;;34.83;23.00;;;1.50;99.90;;;;;;4994426;28;20042;-69
2023/03/10 07:08:53;;;;;;;34.67;22.80;;;1.60;99.90;;;;;;4994355;28;20042;-69
2023/03/10 07:11:19;;;;;;;32.83;22.90;;;1.50;99.90;;;;;;4994333;28;20049;-69
2023/03/10 07:13:45;;;;;;;34.17;23.30;;;1.50;99.90;;;;;;4994468;28;20410;-69
2023/03/10 07:16:11;;;;;;;31.67;22.10;;;1.60;99.90;;;;;;4994187;28;20491;-69
2023/03/10 07:18:36;;;;;;;30.73;21.45;;;1.60;99.90;;;;;;4978302;28;20046;-69
2023/03/10 07:21:07;;;;;;;29.13;21.33;;;1.60;99.90;;;;;;4994136;28;20034;-69
2023/03/10 07:23:33;;;;;;;29.52;20.58;;;1.70;99.90;;;;;;4994071;28;20038;-69
2023/03/10 07:25:58;;;;;;;30.05;21.63;;;1.60;99.90;;;;;;4994010;28;20045;-69
2023/03/10 07:28:25;;;;;;;28.58;20.00;;;1.70;99.90;;;;;;4993977;28;20392;-69
2023/03/10 07:30:51;;;;;;;30.67;21.15;;;1.70;99.90;;;;;;4994213;28;20065;-69
2023/03/10 07:33:17;;;;;;;30.55;20.27;;;1.60;99.90;;;;;;4993720;28;20503;-69
2023/03/10 07:35:42;;;;;;;26.27;18.77;;;1.70;99.90;;;;;;4993719;28;20057;-69
2023/03/10 07:38:08;;;;;;;27.77;20.02;;;1.70;99.90;;;;;;4993771;28;20078;-69
2023/03/10 07:40:34;;;;;;;25.88;18.90;;;1.70;99.90;;;;;;4994017;28;20036;-69
2023/03/10 07:43:00;;;;;;;27.83;20.02;;;1.70;99.90;;;;;;4993642;28;20380;-69
2023/03/10 07:45:26;;;;;;;27.17;19.42;;;1.60;99.90;;;;;;4993662;28;20049;-69
2023/03/10 07:47:53;;;;;;;24.65;18.15;;;1.80;99.90;;;;;;4993857;28;20046;-69
2023/03/10 07:50:19;;;;;;;26.23;19.48;;;1.60;99.90;;;;;;4993871;28;20046;-69
2023/03/10 07:52:45;;;;;;;26.55;18.67;;;1.70;99.90;;;;;;4993724;28;20042;-70
2023/03/10 07:55:11;;;;;;;27.10;19.00;;;1.80;99.90;;;;;;4993388;28;20100;-70
2023/03/10 07:57:37;;;;;;;27.08;18.63;;;1.80;99.90;;;;;;4977500;28;20125;-70
2023/03/10 08:00:04;;;;;;;27.20;19.10;;;1.80;99.90;;;;;;4993357;28;20081;-70
2023/03/10 08:02:30;;;;;;;26.30;18.75;;;1.70;99.90;;;;;;4993480;28;20045;-70
2023/03/10 08:04:56;;;;;;;25.58;17.95;;;1.70;99.90;;;;;;4992618;28;20433;-70
2023/03/10 08:07:22;;;;;;;25.63;18.80;;;1.80;99.90;;;;;;4993235;28;20038;-70
2023/03/10 08:09:49;;;;;;;24.63;17.80;;;1.90;99.90;;;;;;4993206;28;20092;-70
2023/03/10 08:12:16;;;;;;;25.10;18.08;;;1.80;99.90;;;;;;4993207;28;20050;-70
2023/03/10 08:14:41;;;;;;;25.88;18.58;;;1.80;99.90;;;;;;4993028;28;20499;-70
2023/03/10 08:17:07;;;;;;;25.50;18.10;;;1.80;99.90;;;;;;4993112;28;20044;-70
2023/03/10 08:19:33;;;;;;;23.10;17.48;;;1.90;99.90;;;;;;4993040;28;20124;-70
2023/03/10 08:22:00;;;;;;;24.02;16.95;;;1.80;99.90;;;;;;4992920;28;20030;-70
2023/03/10 08:24:26;;;;;;;24.73;16.73;;;1.80;99.90;;;;;;4992871;28;20038;-70
2023/03/10 08:26:52;;;;;;;24.58;18.02;;;1.80;99.90;;;;;;4992920;28;20113;-70
2023/03/10 08:29:17;;;;;;;23.80;17.02;;;1.80;99.90;;;;;;4992913;28;20120;-70
2023/03/10 08:31:43;;;;;;;22.17;16.02;;;1.80;99.90;;;;;;4976702;28;20045;-70
2023/03/10 08:34:09;;;;;;;24.38;17.70;;;1.80;99.90;;;;;;4992668;28;20063;-70
2023/03/10 08:36:35;;;;;;;24.02;16.33;;;1.80;99.90;;;;;;4992788;28;20166;-70
2023/03/10 08:39:01;;;;;;;23.58;17.33;;;1.80;99.90;;;;;;4992752;28;20490;-70
2023/03/10 08:41:30;;;;;;;23.38;16.73;;;1.80;99.90;;;;;;4992789;28;20038;-70
2023/03/10 08:43:57;;;;;;;23.45;17.23;;;1.90;99.90;;;;;;4992902;28;20113;-69
2023/03/10 08:46:24;;;;;;;21.50;16.17;;;1.90;99.90;;;;;;4992662;28;20095;-70
2023/03/10 08:48:50;;;;;;;23.85;17.67;;;1.80;99.90;;;;;;4992685;28;20053;-70
2023/03/10 08:51:17;;;;;;;22.83;16.75;;;1.90;99.90;;;;;;4992614;28;20050;-70
2023/03/10 08:53:45;;;;;;;24.65;17.15;;;1.90;99.90;;;;;;4992470;28;20407;-70
2023/03/10 08:56:11;;;;;;;23.60;17.25;;;1.90;99.90;;;;;;4992517;28;20049;-70
2023/03/10 08:58:37;;;;;;;26.13;18.73;;;2.00;99.90;;;;;;4992503;28;20034;-70
2023/03/10 09:01:03;;;;;;;23.67;17.35;;;1.90;99.90;;;;;;4992505;28;20065;-70
2023/03/10 09:03:28;;;;;;;24.67;17.70;;;1.90;99.90;;;;;;4992589;28;20410;-70
2023/03/10 09:05:54;;;;;;;24.40;17.40;;;1.90;99.90;;;;;;4992492;28;20038;-70
2023/03/10 09:08:20;;;;;;;22.33;16.98;;;1.90;99.90;;;;;;4992388;28;20046;-70
2023/03/10 09:10:46;;;;;;;25.40;18.73;;;1.90;99.90;;;;;;4992424;28;20474;-70
2023/03/10 09:13:12;;;;;;;24.42;18.02;;;1.90;99.90;;;;;;4992378;28;20042;-70
2023/03/10 09:15:40;;;;;;;23.10;17.33;;;1.90;99.90;;;;;;4992305;28;20080;-70
2023/03/10 09:18:10;;;;;;;25.08;17.30;;;1.80;99.90;;;;;;4997033;28;20104;-71
2023/03/10 09:20:37;;;;;;;23.38;16.40;;;1.90;99.90;;;;;;4980159;28;20039;-70
2023/03/10 09:23:03;;;;;;;21.30;16.33;;;2.00;99.90;;;;;;4996223;28;20487;-70
2023/03/10 09:25:29;;;;;;;21.38;15.70;;;1.90;99.90;;;;;;4996307;28;20522;-70
2023/03/10 09:27:55;;;;;;;21.40;15.75;;;1.80;99.90;;;;;;4996236;28;20038;-70
2023/03/10 09:30:21;;;;;;;22.58;16.48;;;1.90;99.90;;;;;;4996203;28;20085;-70
2023/03/10 09:32:47;;;;;;;22.17;16.30;;;2.00;99.90;;;;;;4995923;28;20053;-70
2023/03/10 09:35:12;;;;;;;24.20;16.33;;;1.90;99.90;;;;;;4996267;28;20046;-70
2023/03/10 09:37:38;;;;;;;22.42;16.35;;;1.90;99.90;;;;;;4996141;28;20035;-70
2023/03/10 09:40:06;;;;;;;21.45;15.65;;;1.90;99.90;;;;;;4996292;28;20407;-70
2023/03/10 09:42:43;;;;;;;21.73;15.52;;;1.90;99.90;;;;;;4996162;28;20054;-70
2023/03/10 09:45:18;;;;;;;21.08;15.57;;;1.90;99.90;;;;;;4996039;28;20454;-70
2023/03/10 09:47:58;;;;;;;19.58;14.77;;;1.90;99.90;;;;;;4996219;28;20049;-70
2023/03/10 09:50:42;;;;;;;19.08;14.75;;;2.00;99.90;;;;;;4996119;28;20388;-70
2023/03/10 09:53:40;;;;;;;19.88;14.77;;;1.90;99.90;;;;;;4995799;28;20046;-70
2023/03/10 09:56:16;;;;;;;19.65;15.02;;;2.00;99.90;;;;;;4902135;29;20075;-70
2023/03/10 09:58:48;;;;;;;21.65;15.15;;;2.00;99.90;;;;;;4902394;29;20048;-71
2023/03/10 10:01:23;;;;;;;20.95;15.45;;;1.90;99.90;;;;;;4902493;29;20036;-70
2023/03/10 10:03:53;;;;;;;23.40;16.10;;;2.00;99.90;;;;;;4886657;29;20497;-70
2023/03/10 10:06:33;;;;;;;22.77;15.88;;;1.90;99.90;;;;;;4902550;29;20063;-70
2023/03/10 10:09:06;;;;;;;27.58;17.70;;;2.00;99.90;;;;;;4902292;29;20070;-70
2023/03/10 10:11:35;;;;;;;21.60;16.27;;;2.00;99.90;;;;;;4902215;29;20508;-70
2023/03/10 10:14:19;;;;;;;23.70;16.75;;;1.90;99.90;;;;;;4902126;29;20084;-70
2023/03/10 10:17:09;;;;;;;22.80;16.60;;;2.00;99.90;;;;;;4901866;29;20131;-70
2023/03/10 10:19:38;;;;;;;29.50;18.70;;;1.90;99.90;;;;;;4902030;29;20044;-70
2023/03/10 10:22:09;;;;;;;26.17;17.75;;;1.90;99.90;;;;;;4901772;29;20141;-70
2023/03/10 10:24:35;;;;;;;26.13;18.23;;;2.00;99.90;;;;;;4901808;29;20048;-70
2023/03/10 10:27:00;;;;;;;26.92;19.00;;;2.00;99.90;;;;;;4917696;29;20039;-70
2023/03/10 10:29:37;;;;;;;24.90;18.77;;;1.90;99.90;;;;;;4900898;29;20588;-70
2023/03/10 10:32:12;;;;;;;28.10;19.27;;;1.90;99.90;;;;;;4946209;28;20065;-70
2023/03/10 10:34:40;;;;;;;27.52;18.92;;;2.00;99.90;;;;;;4995019;28;20518;-70
2023/03/10 10:37:26;;;;;;;28.05;19.33;;;2.00;99.90;;;;;;4994892;28;20532;-70
2023/03/10 10:39:53;;;;;;;27.98;19.70;;;2.00;99.90;;;;;;4980145;28;20038;-70
2023/03/10 10:42:33;;;;;;;28.80;20.88;;;2.00;99.90;;;;;;4978938;28;20073;-71
2023/03/10 10:45:30;;;;;;;25.90;19.65;;;2.00;99.90;;;;;;4995153;28;20039;-71
2023/03/10 10:47:56;;;;;;;27.42;19.58;;;2.00;99.90;;;;;;4995144;28;20475;-71
2023/03/10 10:50:28;;;;;;;31.15;21.00;;;1.90;99.90;;;;;;4994766;28;20081;-71
2023/03/10 10:53:14;;;;;;;30.83;22.13;;;1.90;99.90;;;;;;4994790;28;20089;-70
2023/03/10 10:55:45;;;;;;;28.83;20.88;;;1.90;99.90;;;;;;4994895;28;20090;-70
2023/03/10 10:58:33;;;;;;;33.25;23.00;;;2.00;99.90;;;;;;4994621;28;20045;-70
2023/03/10 11:01:01;;;;;;;27.60;20.40;;;1.90;99.90;;;;;;4994982;28;20062;-70
2023/03/10 11:03:36;;;;;;;30.75;21.05;;;1.90;99.90;;;;;;4995069;28;20104;-70
2023/03/10 11:06:23;;;;;;;28.65;20.33;;;1.90;99.90;;;;;;4994965;28;20134;-70
2023/03/10 11:08:49;;;;;;;31.50;20.80;;;1.90;99.90;;;;;;4978636;28;20553;-71
2023/03/10 11:11:29;;;;;;;28.00;20.05;;;1.90;99.90;;;;;;4978429;28;20100;-70
2023/03/10 11:14:33;;;;;;;28.35;21.13;;;2.00;99.90;;;;;;4994515;28;20034;-70
2023/03/10 11:17:06;;;;;;;29.73;20.52;;;2.00;99.90;;;;;;4994169;28;20081;-70
2023/03/10 11:19:51;;;;;;;29.70;20.90;;;1.90;99.90;;;;;;4994283;28;20045;-70
2023/03/10 11:22:24;;;;;;;28.02;20.48;;;1.90;99.90;;;;;;4994223;28;20034;-70
2023/03/10 11:25:16;;;;;;;29.40;20.40;;;2.00;99.90;;;;;;4994145;28;20125;-70
2023/03/10 11:28:09;;;;;;;28.80;19.55;;;1.90;99.90;;;;;;4994401;28;20035;-70
2023/03/10 11:30:39;;;;;;;29.02;20.15;;;2.00;99.90;;;;;;4994456;28;20562;-70
2023/03/10 11:33:33;;;;;;;29.33;20.15;;;1.90;99.90;;;;;;4977534;28;20038;-70
2023/03/10 11:36:25;;;;;;;27.13;18.50;;;1.90;99.90;;;;;;4993820;28;20503;-70
2023/03/10 11:38:57;;;;;;;26.88;18.90;;;1.90;99.90;;;;;;4994036;28;20037;-70
2023/03/10 11:41:32;;;;;;;26.05;19.17;;;1.90;99.90;;;;;;4994027;28;20388;-70
2023/03/10 11:44:29;;;;;;;27.23;18.48;;;1.90;99.90;;;;;;4994054;28;20042;-70
2023/03/10 11:47:04;;;;;;;28.35;18.63;;;1.80;99.90;;;;;;4994183;28;20043;-70
2023/03/10 11:49:36;;;;;;;27.95;18.73;;;1.80;99.90;;;;;;4993714;28;20047;-69
2023/03/10 11:52:16;;;;;;;27.88;19.23;;;1.90;99.90;;;;;;4993617;28;20579;-70
2023/03/10 11:54:49;;;;;;;25.70;18.40;;;1.90;99.90;;;;;;4993496;28;20034;-70
2023/03/10 11:57:20;;;;;;;24.05;18.02;;;1.90;99.90;;;;;;4993828;28;20065;-70
2023/03/10 11:59:51;;;;;;;27.15;18.98;;;1.80;99.90;;;;;;4993706;28;20047;-70
2023/03/10 12:02:56;;;;;;;24.90;18.60;;;1.90;99.90;;;;;;4993509;28;20038;-70
2023/03/10 12:05:24;;;;;;;25.90;18.30;;;1.90;99.90;;;;;;4993393;28;20534;-70
2023/03/10 12:07:59;;;;;;;23.63;17.15;;;1.80;99.90;;;;;;4977133;28;20053;-70
2023/03/10 12:10:25;;;;;;;25.92;18.55;;;1.80;99.90;;;;;;4993311;28;20057;-71
2023/03/10 12:12:53;;;;;;;24.58;18.17;;;1.80;99.90;;;;;;4993246;28;20081;-71
2023/03/10 12:15:22;;;;;;;24.42;17.30;;;1.90;99.90;;;;;;4993182;28;20038;-71
2023/03/10 12:17:50;;;;;;;23.42;17.60;;;2.00;99.90;;;;;;4993151;28;20069;-71
2023/03/10 12:20:16;;;;;;;26.52;17.95;;;2.00;99.90;;;;;;4993396;28;20518;-71
2023/03/10 12:23:10;;;;;;;22.50;16.90;;;1.80;99.90;;;;;;4976763;28;20050;-71
2023/03/10 12:25:37;;;;;;;22.27;16.50;;;2.00;99.90;;;;;;4956747;28;20050;-71
2023/03/10 12:28:27;;;;;;;23.52;16.70;;;1.80;99.90;;;;;;4976790;28;20042;-70
2023/03/10 12:31:06;;;;;;;24.05;17.42;;;1.90;99.90;;;;;;4981339;28;20434;-70
2023/03/10 12:33:32;;;;;;;24.85;18.27;;;1.90;99.90;;;;;;4992973;28;20177;-70
2023/03/10 12:36:08;;;;;;;25.15;18.00;;;1.90;99.90;;;;;;4992921;28;20129;-70
2023/03/10 12:38:38;;;;;;;25.00;17.73;;;2.00;99.90;;;;;;4992853;28;20168;-70
2023/03/10 12:41:05;;;;;;;24.95;17.75;;;2.10;99.90;;;;;;4992759;28;20045;-70
2023/03/10 12:43:51;;;;;;;24.23;17.55;;;2.00;99.90;;;;;;4976509;28;20038;-71
2023/03/10 12:46:44;;;;;;;22.25;16.27;;;2.10;99.90;;;;;;4992726;28;20043;-70
2023/03/10 12:49:21;;;;;;;;;;;2.00;99.90;;;;;;4993079;28;20042;-70